createdAt,value
2019-04-06T00:01:34.629Z,87.30
2019-04-06T00:04:02.198Z,87.60
2019-04-06T00:06:29.588Z,87.20
2019-04-06T00:08:56.973Z,87.40
2019-04-06T00:11:24.368Z,87.40
2019-04-06T00:13:52.715Z,87.30
2019-04-06T00:16:20.464Z,87.40
2019-04-06T00:18:47.883Z,87.40
2019-04-06T00:21:15.368Z,87.70
2019-04-06T00:23:42.795Z,87.60
2019-04-06T00:26:10.364Z,87.80
2019-04-06T00:28:37.935Z,87.70
2019-04-06T00:31:22.718Z,87.60
2019-04-06T00:33:50.420Z,87.70
2019-04-06T00:36:22.545Z,87.30
2019-04-06T00:38:49.896Z,87.30
2019-04-06T00:41:17.567Z,87.80
2019-04-06T00:43:45.134Z,87.40
2019-04-06T00:46:12.577Z,87.30
2019-04-06T00:48:39.966Z,87.30
2019-04-06T00:51:07.513Z,87.60
2019-04-06T00:53:35.256Z,87.60
2019-04-06T00:56:02.702Z,87.40
2019-04-06T00:58:30.156Z,87.40
2019-04-06T01:00:57.606Z,87.60
2019-04-06T01:03:25.059Z,87.60
2019-04-06T01:05:52.618Z,87.60
2019-04-06T01:08:20.180Z,87.80
2019-04-06T01:10:47.712Z,87.80
2019-04-06T01:13:15.245Z,87.70
2019-04-06T01:15:42.654Z,87.70
2019-04-06T01:18:10.106Z,87.70
2019-04-06T01:20:37.661Z,87.80
2019-04-06T01:23:05.107Z,87.70
2019-04-06T01:25:32.679Z,87.90
2019-04-06T01:28:00.228Z,87.80
2019-04-06T01:30:27.659Z,87.80
2019-04-06T01:32:55.254Z,87.80
2019-04-06T01:35:22.606Z,87.80
2019-04-06T01:37:50.020Z,88.00
2019-04-06T01:40:17.606Z,88.00
2019-04-06T01:42:44.894Z,88.00
2019-04-06T01:45:12.326Z,88.10
2019-04-06T01:47:39.726Z,88.20
2019-04-06T01:50:07.249Z,88.10
2019-04-06T01:52:34.598Z,88.20
2019-04-06T01:55:02.092Z,88.30
2019-04-06T01:57:29.848Z,88.20
2019-04-06T01:59:57.305Z,88.20
2019-04-06T02:02:27.961Z,88.40
2019-04-06T02:04:55.366Z,88.60
2019-04-06T02:07:23.034Z,88.50
2019-04-06T02:09:50.802Z,88.60
2019-04-06T02:12:18.211Z,88.70
2019-04-06T02:14:45.718Z,88.60
2019-04-06T02:17:13.152Z,88.80
2019-04-06T02:19:40.606Z,88.80
2019-04-06T02:22:08.119Z,88.60
2019-04-06T02:24:35.561Z,88.80
2019-04-06T02:27:02.874Z,88.50
2019-04-06T02:29:30.657Z,88.50
2019-04-06T02:32:06.731Z,88.60
2019-04-06T02:34:51.822Z,88.00
2019-04-06T02:37:38.474Z,88.30
2019-04-06T02:40:24.114Z,88.10
2019-04-06T02:42:56.285Z,88.70
2019-04-06T02:45:23.757Z,88.80
2019-04-06T02:47:51.237Z,88.60
2019-04-06T02:50:19.129Z,89.00
2019-04-06T02:52:46.696Z,89.10
2019-04-06T02:55:14.303Z,89.20
2019-04-06T02:57:41.732Z,88.90
2019-04-06T03:00:09.636Z,88.90
2019-04-06T03:02:37.308Z,89.20
2019-04-06T03:05:05.063Z,89.00
2019-04-06T03:07:32.420Z,88.90
2019-04-06T03:09:59.877Z,88.90
2019-04-06T03:12:27.457Z,89.00
2019-04-06T03:14:54.813Z,88.90
2019-04-06T03:17:22.265Z,88.60
2019-04-06T03:19:49.669Z,88.70
2019-04-06T03:22:16.977Z,89.20
2019-04-06T03:24:44.507Z,89.20
2019-04-06T03:27:12.113Z,88.80
2019-04-06T03:29:39.626Z,89.00
2019-04-06T03:32:07.202Z,89.20
2019-04-06T03:34:34.577Z,89.00
2019-04-06T03:37:02.012Z,89.20
2019-04-06T03:39:29.388Z,89.20
2019-04-06T03:41:57.050Z,89.10
2019-04-06T03:44:24.457Z,89.30
2019-04-06T03:46:51.885Z,89.60
2019-04-06T03:49:19.357Z,89.70
2019-04-06T03:51:46.771Z,89.60
2019-04-06T03:54:14.322Z,89.70
2019-04-06T03:56:41.731Z,89.50
2019-04-06T03:59:09.163Z,89.70
2019-04-06T04:01:36.608Z,89.60
2019-04-06T04:04:04.051Z,89.80
2019-04-06T04:06:31.361Z,89.60
2019-04-06T04:08:58.771Z,89.70
2019-04-06T04:11:26.168Z,89.40
2019-04-06T04:13:53.612Z,89.40
2019-04-06T04:16:21.001Z,89.10
2019-04-06T04:18:48.421Z,89.10
2019-04-06T04:21:15.992Z,89.10
2019-04-06T04:23:43.438Z,89.20
2019-04-06T04:26:11.233Z,89.00
2019-04-06T04:28:38.972Z,89.80
2019-04-06T04:31:06.442Z,90.00
2019-04-06T04:33:33.973Z,90.00
2019-04-06T04:36:01.423Z,90.20
2019-04-06T04:38:28.690Z,90.00
2019-04-06T04:40:56.166Z,89.90
2019-04-06T04:43:23.697Z,89.70
2019-04-06T04:45:51.074Z,90.30
2019-04-06T04:48:18.538Z,90.30
2019-04-06T04:50:45.781Z,90.20
2019-04-06T04:53:13.254Z,90.40
2019-04-06T04:55:40.741Z,91.10
2019-04-06T04:58:08.168Z,91.50
2019-04-06T05:00:35.592Z,91.60
2019-04-06T05:03:02.956Z,91.40
2019-04-06T05:05:30.322Z,91.20
2019-04-06T05:07:57.786Z,91.10
2019-04-06T05:10:25.124Z,91.10
2019-04-06T05:12:52.483Z,91.20
2019-04-06T05:15:29.474Z,91.30
2019-04-06T05:17:56.736Z,91.10
2019-04-06T05:20:24.194Z,90.90
2019-04-06T05:22:51.478Z,91.00
2019-04-06T05:25:18.852Z,90.60
2019-04-06T05:27:51.820Z,90.20
2019-04-06T05:30:16.032Z,90.20
2019-04-06T05:32:43.585Z,90.10
2019-04-06T05:35:11.161Z,90.00
2019-04-06T05:37:38.981Z,90.40
2019-04-06T05:40:06.576Z,90.80
2019-04-06T05:42:33.823Z,90.80
2019-04-06T05:45:01.232Z,90.40
2019-04-06T05:47:28.634Z,91.00
2019-04-06T05:49:56.250Z,90.90
2019-04-06T05:52:23.840Z,90.80
2019-04-06T05:54:51.308Z,90.40
2019-04-06T05:57:18.734Z,90.70
2019-04-06T05:59:46.041Z,91.00
2019-04-06T06:02:13.500Z,91.10
2019-04-06T06:04:41.170Z,91.10
2019-04-06T06:07:09.068Z,91.10
2019-04-06T06:09:37.498Z,91.00
2019-04-06T06:12:04.919Z,90.70
2019-04-06T06:14:32.172Z,91.00
2019-04-06T06:16:59.529Z,91.00
2019-04-06T06:19:26.929Z,90.60
2019-04-06T06:21:54.217Z,90.40
2019-04-06T06:24:21.643Z,90.60
2019-04-06T06:26:49.175Z,90.50
2019-04-06T06:29:16.866Z,90.40
2019-04-06T06:31:45.864Z,90.50
2019-04-06T06:34:13.315Z,90.20
2019-04-06T06:36:40.750Z,90.20
2019-04-06T06:39:08.656Z,90.40
2019-04-06T06:41:36.129Z,90.60
2019-04-06T06:44:03.936Z,89.70
2019-04-06T06:46:37.850Z,89.80
2019-04-06T06:49:05.250Z,89.80
2019-04-06T06:51:34.051Z,89.70
2019-04-06T06:54:01.645Z,89.10
2019-04-06T06:56:30.009Z,89.50
2019-04-06T06:58:57.384Z,89.60
2019-04-06T07:01:24.817Z,89.70
2019-04-06T07:03:52.218Z,89.30
2019-04-06T07:06:19.649Z,89.40
2019-04-06T07:08:47.014Z,89.80
2019-04-06T07:11:14.493Z,89.70
2019-04-06T07:14:01.898Z,89.30
2019-04-06T07:16:33.483Z,89.30
2019-04-06T07:19:01.968Z,89.40
2019-04-06T07:21:29.446Z,89.20
2019-04-06T07:23:56.908Z,89.30
2019-04-06T07:26:24.179Z,89.50
2019-04-06T07:28:51.693Z,88.70
2019-04-06T07:31:19.058Z,88.30
2019-04-06T07:33:46.515Z,87.80
2019-04-06T07:36:14.222Z,88.00
2019-04-06T07:38:41.828Z,87.70
2019-04-06T07:41:09.395Z,88.40
2019-04-06T07:43:36.898Z,87.60
2019-04-06T07:46:05.531Z,87.30
2019-04-06T07:48:33.215Z,87.30
2019-04-06T07:51:00.709Z,87.40
2019-04-06T07:53:29.143Z,86.20
2019-04-06T07:55:56.541Z,86.50
2019-04-06T07:58:23.995Z,85.50
2019-04-06T08:00:51.531Z,84.60
2019-04-06T08:03:19.105Z,85.20
2019-04-06T08:05:46.718Z,84.40
2019-04-06T08:08:14.122Z,83.80
2019-04-06T08:10:41.679Z,82.70
2019-04-06T08:13:09.109Z,82.60
2019-04-06T08:15:36.553Z,82.60
2019-04-06T08:18:04.566Z,82.50
2019-04-06T08:20:32.049Z,81.80
2019-04-06T08:22:59.548Z,82.00
2019-04-06T08:25:26.967Z,82.30
2019-04-06T08:27:54.528Z,81.90
2019-04-06T08:30:22.318Z,81.40
2019-04-06T08:32:49.792Z,81.60
2019-04-06T08:35:25.214Z,80.60
2019-04-06T08:37:46.452Z,80.90
2019-04-06T08:40:14.306Z,80.50
2019-04-06T08:42:42.000Z,80.30
2019-04-06T08:45:09.784Z,79.80
2019-04-06T08:47:37.285Z,80.20
2019-04-06T08:50:05.415Z,79.80
2019-04-06T08:52:33.051Z,79.60
2019-04-06T08:55:00.556Z,79.40
2019-04-06T08:57:27.834Z,79.30
2019-04-06T08:59:55.105Z,79.50
2019-04-06T09:02:22.618Z,79.30
2019-04-06T09:04:50.009Z,80.10
2019-04-06T09:07:17.262Z,78.80
2019-04-06T09:09:44.650Z,78.80
2019-04-06T09:12:12.372Z,78.40
2019-04-06T09:14:39.782Z,78.70
2019-04-06T09:17:07.373Z,77.90
2019-04-06T09:19:34.907Z,78.00
2019-04-06T09:22:02.525Z,78.30
2019-04-06T09:24:30.106Z,78.50
2019-04-06T09:26:57.530Z,78.50
2019-04-06T09:29:25.096Z,78.10
2019-04-06T09:31:52.683Z,77.40
2019-04-06T09:34:20.468Z,77.10
2019-04-06T09:36:47.896Z,77.60
2019-04-06T09:39:15.262Z,77.80
2019-04-06T09:41:42.680Z,77.20
2019-04-06T09:44:17.342Z,77.50
2019-04-06T09:47:04.314Z,76.30
2019-04-06T09:50:03.380Z,76.10
2019-04-06T09:52:48.500Z,77.00
2019-04-06T09:55:24.370Z,76.40
2019-04-06T09:58:26.444Z,76.30
2019-04-06T10:01:15.984Z,76.10
2019-04-06T10:03:51.863Z,76.00
2019-04-06T10:06:37.562Z,75.60
2019-04-06T10:09:24.851Z,75.70
2019-04-06T10:12:17.826Z,75.20
2019-04-06T10:15:05.122Z,75.80
2019-04-06T10:18:01.340Z,75.30
2019-04-06T10:20:51.073Z,75.60
2019-04-06T10:23:38.123Z,76.00
2019-04-06T10:26:23.326Z,74.80
2019-04-06T10:29:08.445Z,75.20
2019-04-06T10:32:01.059Z,75.00
2019-04-06T10:34:38.766Z,75.20
2019-04-06T10:37:25.743Z,75.30
2019-04-06T10:40:13.154Z,75.10
2019-04-06T10:43:02.123Z,76.00
2019-04-06T10:45:49.281Z,76.20
2019-04-06T10:48:30.856Z,76.30
2019-04-06T10:51:11.994Z,75.80
2019-04-06T10:53:46.757Z,76.20
2019-04-06T10:56:25.601Z,76.40
2019-04-06T10:59:10.953Z,76.00
2019-04-06T11:02:12.621Z,75.40
2019-04-06T11:04:50.508Z,75.60
2019-04-06T11:07:44.326Z,75.30
2019-04-06T11:10:32.687Z,75.60
2019-04-06T11:13:35.192Z,75.30
2019-04-06T11:16:21.716Z,75.60
2019-04-06T11:19:07.962Z,75.80
2019-04-06T11:21:53.084Z,75.80
2019-04-06T11:24:37.082Z,76.20
2019-04-06T11:27:36.578Z,76.40
2019-04-06T11:30:31.969Z,76.50
2019-04-06T11:33:12.190Z,76.10
2019-04-06T11:35:59.686Z,76.30
2019-04-06T11:38:49.731Z,75.20
2019-04-06T11:41:25.088Z,75.90
2019-04-06T11:44:12.029Z,76.40
2019-04-06T11:46:55.433Z,76.50
2019-04-06T11:49:40.872Z,76.60
2019-04-06T11:52:32.092Z,75.80
2019-04-06T11:55:17.314Z,76.30
2019-04-06T11:58:07.524Z,76.40
2019-04-06T12:01:12.932Z,76.00
2019-04-06T12:04:00.687Z,75.70
2019-04-06T12:06:53.735Z,76.60
2019-04-06T12:09:44.944Z,76.40
2019-04-06T12:12:43.402Z,76.30
2019-04-06T12:15:30.665Z,75.90
2019-04-06T12:18:19.476Z,77.30
2019-04-06T12:21:03.101Z,76.60
2019-04-06T12:23:53.182Z,76.40
2019-04-06T12:26:42.826Z,76.40
2019-04-06T12:29:29.822Z,75.90
2019-04-06T12:32:23.912Z,76.00
2019-04-06T12:35:18.250Z,76.00
2019-04-06T12:38:05.272Z,75.90
2019-04-06T12:40:51.570Z,75.70
2019-04-06T12:43:40.769Z,75.40
2019-04-06T12:46:25.795Z,75.20
2019-04-06T12:49:02.759Z,75.40
2019-04-06T12:52:01.834Z,74.70
2019-04-06T12:54:39.777Z,74.70
2019-04-06T12:57:29.526Z,74.90
2019-04-06T13:00:25.144Z,74.50
2019-04-06T13:03:10.207Z,74.00
2019-04-06T13:05:49.427Z,73.10
2019-04-06T13:08:37.624Z,73.70
2019-04-06T13:11:15.195Z,73.30
2019-04-06T13:13:51.823Z,72.90
2019-04-06T13:16:51.912Z,72.70
2019-04-06T13:19:36.676Z,73.70
2019-04-06T13:22:26.368Z,72.90
2019-04-06T13:25:06.805Z,73.50
2019-04-06T13:27:53.118Z,72.70
2019-04-06T13:31:02.147Z,73.70
2019-04-06T13:33:43.762Z,73.50
2019-04-06T13:36:26.228Z,73.50
2019-04-06T13:39:11.051Z,73.00
2019-04-06T13:41:54.782Z,72.80
2019-04-06T13:44:32.601Z,72.60
2019-04-06T13:47:14.894Z,73.20
2019-04-06T13:50:07.602Z,73.30
2019-04-06T13:52:52.898Z,73.80
2019-04-06T13:55:38.043Z,73.50
2019-04-06T13:58:10.614Z,74.50
2019-04-06T14:00:48.124Z,73.90
2019-04-06T14:03:35.136Z,73.40
2019-04-06T14:06:14.705Z,73.70
2019-04-06T14:08:57.752Z,73.50
2019-04-06T14:11:32.956Z,73.30
2019-04-06T14:14:29.145Z,73.70
2019-04-06T14:17:10.803Z,72.80
2019-04-06T14:19:55.809Z,73.20
2019-04-06T14:22:48.199Z,72.20
2019-04-06T14:25:25.907Z,72.60
2019-04-06T14:28:09.887Z,72.10
2019-04-06T14:31:05.460Z,72.20
2019-04-06T14:33:55.588Z,72.00
2019-04-06T14:36:35.280Z,71.80
2019-04-06T14:39:33.139Z,71.40
2019-04-06T14:42:12.750Z,71.00
2019-04-06T14:45:01.398Z,70.00
2019-04-06T14:47:36.574Z,70.70
2019-04-06T14:50:29.512Z,71.10
2019-04-06T14:53:20.516Z,71.70
2019-04-06T14:56:05.898Z,71.10
2019-04-06T14:58:51.510Z,71.40
2019-04-06T15:01:40.466Z,72.00
2019-04-06T15:04:13.548Z,71.20
2019-04-06T15:07:12.883Z,71.90
2019-04-06T15:10:00.837Z,72.00
2019-04-06T15:12:47.184Z,71.00
2019-04-06T15:15:34.184Z,71.50
2019-04-06T15:18:36.255Z,71.20
2019-04-06T15:21:18.901Z,71.30
2019-04-06T15:24:10.758Z,72.00
2019-04-06T15:26:57.720Z,71.30
2019-04-06T15:29:47.674Z,71.40
2019-04-06T15:32:50.232Z,71.60
2019-04-06T15:35:36.228Z,71.50
2019-04-06T15:38:15.548Z,71.60
2019-04-06T15:41:01.252Z,72.00
2019-04-06T15:43:46.748Z,71.30
2019-04-06T15:46:36.965Z,71.00
2019-04-06T15:49:25.182Z,71.40
2019-04-06T15:52:24.042Z,71.30
2019-04-06T15:55:13.760Z,71.40
2019-04-06T15:57:48.161Z,71.30
2019-04-06T16:00:33.890Z,71.40
2019-04-06T16:03:20.879Z,71.40
2019-04-06T16:06:07.821Z,71.40
2019-04-06T16:09:03.915Z,71.00
2019-04-06T16:11:49.469Z,72.00
2019-04-06T16:14:33.191Z,71.40
2019-04-06T16:17:20.236Z,71.20
2019-04-06T16:20:03.784Z,71.00
2019-04-06T16:22:49.163Z,71.00
2019-04-06T16:25:23.520Z,71.40
2019-04-06T16:28:16.348Z,71.10
2019-04-06T16:30:55.346Z,71.30
2019-04-06T16:33:41.378Z,72.00
2019-04-06T16:36:28.470Z,71.20
2019-04-06T16:39:22.221Z,71.60
2019-04-06T16:42:09.251Z,70.90
2019-04-06T16:45:02.069Z,71.60
2019-04-06T16:47:47.903Z,71.60
2019-04-06T16:50:49.768Z,71.40
2019-04-06T16:53:33.744Z,71.80
2019-04-06T16:56:12.584Z,71.70
2019-04-06T16:58:54.477Z,71.80
2019-04-06T17:01:30.157Z,71.80
2019-04-06T17:04:18.761Z,72.00
2019-04-06T17:07:06.233Z,72.20
2019-04-06T17:10:02.140Z,72.20
2019-04-06T17:12:36.766Z,72.60
2019-04-06T17:15:29.749Z,72.50
2019-04-06T17:18:14.828Z,72.80
2019-04-06T17:21:07.128Z,72.90
2019-04-06T17:23:40.024Z,73.00
2019-04-06T17:26:15.521Z,73.00
2019-04-06T17:29:15.047Z,73.30
2019-04-06T17:31:54.246Z,73.40
2019-04-06T17:34:53.831Z,73.60
2019-04-06T17:37:35.763Z,74.00
2019-04-06T17:40:26.797Z,74.30
2019-04-06T17:43:12.072Z,74.30
2019-04-06T17:46:14.040Z,75.20
2019-04-06T17:49:03.789Z,75.90
2019-04-06T17:51:55.424Z,76.90
2019-04-06T17:55:04.876Z,77.50
2019-04-06T18:00:59.433Z,78.50
2019-04-06T18:03:50.627Z,79.10
2019-04-06T18:06:37.558Z,79.40
2019-04-06T18:09:25.935Z,79.90
2019-04-06T18:12:11.620Z,80.10
2019-04-06T18:14:39.429Z,80.60
2019-04-06T18:17:07.627Z,80.70
2019-04-06T18:19:35.057Z,80.70
2019-04-06T18:22:02.905Z,80.80
2019-04-06T18:24:30.644Z,80.70
2019-04-06T18:26:59.074Z,81.30
2019-04-06T18:29:27.296Z,81.70
2019-04-06T18:32:04.800Z,81.50
2019-04-06T18:34:32.221Z,81.30
2019-04-06T18:37:37.054Z,81.90
2019-04-06T18:40:24.823Z,81.80
2019-04-06T18:42:52.216Z,82.00
2019-04-06T18:45:19.455Z,82.10
2019-04-06T18:47:46.817Z,82.60
2019-04-06T18:50:14.772Z,83.10
2019-04-06T18:52:42.142Z,83.10
2019-04-06T18:55:09.919Z,83.40
2019-04-06T18:57:37.269Z,83.50
2019-04-06T19:00:07.543Z,83.60
2019-04-06T19:02:36.413Z,83.40
2019-04-06T19:05:04.576Z,83.40
2019-04-06T19:07:31.955Z,83.60
2019-04-06T19:09:59.565Z,84.10
2019-04-06T19:12:26.913Z,84.10
2019-04-06T19:14:54.264Z,84.30
2019-04-06T19:17:21.509Z,84.60
2019-04-06T19:19:48.891Z,84.90
2019-04-06T19:22:16.167Z,84.90
2019-04-06T19:24:44.394Z,85.10
2019-04-06T19:27:11.894Z,85.10
2019-04-06T19:29:39.522Z,85.10
2019-04-06T19:32:06.871Z,85.10
2019-04-06T19:34:34.224Z,85.00
2019-04-06T19:37:01.779Z,85.20
2019-04-06T19:39:29.121Z,85.10
2019-04-06T19:41:56.609Z,85.30
2019-04-06T19:44:23.812Z,85.40
2019-04-06T19:46:51.336Z,85.60
2019-04-06T19:49:18.739Z,85.70
2019-04-06T19:51:45.856Z,86.00
2019-04-06T19:54:14.053Z,86.00
2019-04-06T19:56:41.530Z,86.00
2019-04-06T19:59:08.934Z,85.90
2019-04-06T20:01:36.400Z,86.00
2019-04-06T20:04:03.934Z,86.00
2019-04-06T20:06:31.763Z,86.30
2019-04-06T20:08:58.784Z,86.20
2019-04-06T20:11:27.291Z,86.10
2019-04-06T20:13:54.974Z,86.20
2019-04-06T20:16:22.891Z,86.30
2019-04-06T20:18:50.088Z,86.30
2019-04-06T20:21:17.579Z,86.00
2019-04-06T20:23:44.928Z,86.10
2019-04-06T20:26:12.795Z,86.30
2019-04-06T20:28:40.067Z,86.70
2019-04-06T20:31:07.382Z,86.80
2019-04-06T20:33:46.398Z,86.50
2019-04-06T20:36:03.997Z,86.70
2019-04-06T20:38:31.276Z,86.90
2019-04-06T20:40:58.629Z,86.80
2019-04-06T20:43:26.344Z,87.10
2019-04-06T20:45:54.349Z,87.30
2019-04-06T20:48:21.617Z,87.30
2019-04-06T20:50:49.080Z,87.50
2019-04-06T20:53:16.661Z,87.70
2019-04-06T20:55:44.022Z,87.50
2019-04-06T20:58:12.127Z,87.80
2019-04-06T21:00:39.420Z,87.50
2019-04-06T21:03:06.688Z,87.80
2019-04-06T21:05:33.892Z,87.80
2019-04-06T21:08:01.398Z,88.20
2019-04-06T21:10:28.624Z,88.10
2019-04-06T21:12:55.989Z,88.00
2019-04-06T21:15:23.790Z,88.20
2019-04-06T21:17:51.647Z,88.00
2019-04-06T21:20:19.086Z,88.00
2019-04-06T21:22:46.339Z,88.10
2019-04-06T21:25:13.668Z,88.20
2019-04-06T21:27:43.185Z,88.10
2019-04-06T21:30:10.786Z,88.20
2019-04-06T21:32:38.350Z,88.30
2019-04-06T21:35:05.707Z,88.40
2019-04-06T21:37:33.469Z,88.20
2019-04-06T21:40:01.069Z,88.20
2019-04-06T21:42:28.642Z,88.30
2019-04-06T21:44:55.956Z,88.30
2019-04-06T21:47:23.194Z,88.50
2019-04-06T21:49:50.426Z,88.20
2019-04-06T21:52:18.079Z,88.70
2019-04-06T21:54:45.578Z,88.90
2019-04-06T21:57:13.177Z,89.00
2019-04-06T21:59:40.532Z,88.70
2019-04-06T22:02:08.064Z,89.00
2019-04-06T22:04:35.504Z,88.90
2019-04-06T22:07:03.167Z,89.20
2019-04-06T22:09:30.513Z,88.90
2019-04-06T22:11:58.392Z,88.80
2019-04-06T22:14:26.235Z,88.60
2019-04-06T22:16:53.632Z,88.90
2019-04-06T22:19:21.411Z,89.10
2019-04-06T22:21:49.397Z,89.10
2019-04-06T22:24:17.112Z,89.30
2019-04-06T22:26:44.523Z,89.10
2019-04-06T22:29:11.926Z,89.10
2019-04-06T22:31:40.585Z,89.10
2019-04-06T22:34:08.091Z,89.20
2019-04-06T22:36:35.615Z,89.20
2019-04-06T22:39:05.433Z,89.40
2019-04-06T22:41:32.921Z,89.50
2019-04-06T22:44:00.716Z,89.60
2019-04-06T22:46:28.462Z,89.80
2019-04-06T22:48:56.229Z,89.50
2019-04-06T22:51:24.638Z,89.40
2019-04-06T22:53:52.108Z,89.50
2019-04-06T22:56:19.372Z,89.20
2019-04-06T22:58:46.632Z,89.10
2019-04-06T23:01:15.173Z,89.90
2019-04-06T23:04:02.034Z,90.50
2019-04-06T23:06:34.630Z,90.70
2019-04-06T23:09:01.830Z,91.00
2019-04-06T23:11:29.133Z,90.80
2019-04-06T23:13:56.517Z,91.00
2019-04-06T23:16:23.842Z,90.90
2019-04-06T23:18:51.176Z,91.00
2019-04-06T23:21:18.392Z,90.90
2019-04-06T23:23:46.456Z,90.90
2019-04-06T23:26:13.818Z,90.60
2019-04-06T23:28:41.068Z,90.50
2019-04-06T23:31:08.315Z,90.20
2019-04-06T23:33:35.704Z,90.00
2019-04-06T23:36:03.369Z,90.10
2019-04-06T23:38:30.854Z,90.10
2019-04-06T23:40:58.061Z,89.90
2019-04-06T23:43:25.579Z,89.80
2019-04-06T23:45:52.914Z,89.80
2019-04-06T23:48:20.513Z,89.70
2019-04-06T23:50:48.357Z,89.90
2019-04-06T23:53:16.027Z,89.90
2019-04-06T23:55:43.426Z,89.80
2019-04-06T23:58:10.890Z,90.00
